Antelope Valley, Nevada Weather observations

Data are for 10 minute period ending at time listed.
 Day   Time   Solar   Ave.   Ave.  Ave.  Vector  Max.   Baro.   Total    
  of    of     Rad.   Air    Rel.  Wind   Wind   Wind  Press.  Precip.   
Year   Day            Temp.  Hum.  Speed  Dir.   Gust                    
2017   (PST)  Kw/m2    F      %     mph   deg.    mph    mb.     in.     
-------------------------------------------------------------------------
  55   10:30   0.69   28.4    58    7.1   208    11.4   852.7    0.00 
  55   10:40   0.56   28.3    55    6.0   221    10.2   852.8    0.00 
  55   10:50   0.42   28.0    53    5.8   231    15.3   852.7    0.00 
  55   11:00   0.56   27.6    54    4.8   245     9.3   852.7    0.00 
  55   11:10   0.61   28.3    54    6.3   258     9.1   852.7    0.00 
  55   11:20   0.73   29.0    51    5.5   241     8.0   852.7    0.00 
  55   11:30   0.51   28.7    45    6.7   239    10.4   852.6    0.00 
  55   11:40   0.39   27.6    49    4.5   241    10.3   852.6    0.00 
  55   11:50   0.33   27.6    48    5.7   235    11.2   852.6    0.00 
  55   12:00   0.68   28.5    48    7.4   228    12.7   852.7    0.00 
  55   12:10   0.78   29.7    48    7.9   235    13.4   852.7    0.00 
  55   12:20   0.78   30.5    49    9.3   248    13.7   852.7    0.00 
  55   12:30   0.70   30.3    47   10.3   229    18.3   852.6    0.00 
  55   12:40   0.43   29.5    48    7.6   242    13.1   852.5    0.00 
  55   12:50   0.65   29.8    46    7.8   236    12.0   852.5    0.00 
  55   13:00   0.62   29.8    45    4.8   202     8.8   852.5    0.00 
  55   13:10   0.55   30.2    49    7.4   276    12.4   852.4    0.00 
  55   13:20   0.35   29.6    48    7.3   277    12.8   852.3    0.00 
  55   13:30   0.56   30.0    45    7.6   275    12.3   852.3    0.00 
  55   13:40   0.66   30.9    44    5.9   232    10.6   852.2    0.00 
  55   13:50   0.53   31.1    44    4.7   244    12.0   852.2    0.00 
  55   14:00   0.49   30.7    44    5.8   225    11.1   852.0    0.00 
  55   14:10   0.24   29.5    45    5.7   250    10.4   852.0    0.00 
  55   14:20   0.56   31.1    42    3.7   264     8.0   851.9    0.00 
  55   14:30   0.41   30.8    44    5.5   269     9.9   851.8    0.00 
  55   14:40   0.56   31.4    42    5.1   270     9.6   851.8    0.00 
  55   14:50   0.54   32.5    42    4.7   258     8.0   851.7    0.00 
  55   15:00   0.39   32.3    38    5.2   224    10.7   851.7    0.00 
  55   15:10   0.20   30.0    40    4.5   238     7.2   851.7    0.00 
  55   15:20   0.43   32.3    35    2.0   265     5.4   851.6    0.00 
  55   15:30   0.40   32.2    36    4.6   259     9.8   851.5    0.00 
  55   15:40   0.31   32.0    36    5.2   229    10.2   851.5    0.00 
  55   15:50   0.32   32.0    30    3.7   267     6.7   851.5    0.00 
  55   16:00   0.28   32.6    30    3.1   315     6.6   851.5    0.00 
  55   16:10   0.26   32.7    31    2.8   256     5.8   851.4    0.00 
  55   16:20   0.23   33.0    32    2.5   260     5.5   851.3    0.00 
  55   16:30   0.20   33.0    30    1.9   267     5.6   851.3    0.00 
  55   16:40   0.16   33.3    29    1.9   286     4.2   851.3    0.00 
  55   16:50   0.12   32.1    30    2.9   269     5.2   851.3    0.00 
  55   17:00   0.09   31.9    29    0.9    19     2.9   851.4    0.00 
  55   17:10   0.06   31.6    28    1.0    99     2.8   851.4    0.00 
  55   17:20   0.05   30.9    31    0.8   140     2.2   851.5    0.00 
  55   17:30   0.02   30.5    33    0.8   188     3.0   851.4    0.00 
  55   17:40   0.01   28.8    47    2.8   101     3.6   851.4    0.00 
  55   17:50   0.00   27.1    55    2.6   102     3.7   851.5    0.00 
  55   18:00   0.00   26.1    60    2.8   112     3.6   851.6    0.00 
  55   18:10   0.00   25.0    67    3.6   118     5.0   851.8    0.00 
  55   18:20   0.00   24.5    70    3.2   117     4.4   851.9    0.00 
  55   18:30   0.00   23.2    75    3.7   132     4.5   852.0    0.00 
  55   18:40   0.00   23.1    77    3.5   142     3.9   852.0    0.00 
  55   18:50   0.00   22.9    79    3.6   142     4.3   852.0    0.00 
  55   19:00   0.00   23.1    80    2.5   226     4.7   852.1    0.00 
  55   19:10   0.00   24.4    73    1.3   268     2.9   852.1    0.00 
  55   19:20   0.00   24.5    74    2.4   258     3.2   852.1    0.00 
  55   19:30   0.00   24.2    78    2.9   259     3.5   852.0    0.00 
  55   19:40   0.00   23.6    80    2.3   249     3.3   852.0    0.00 
  55   19:50   0.00   23.1    81    1.6   244     3.1   852.0    0.00 
  55   20:00   0.00   22.9    81    0.0   242     0.4   852.1    0.00 
  55   20:10   0.00   22.9    82    0.4   318     1.6   852.1    0.00 
  55   20:20   0.00   22.7    84    0.8   307     1.3   852.1    0.00 
  55   20:30   0.00   22.3    85    0.0     0     0.0   852.1    0.00 
  55   20:40   0.00   22.5    86    0.6    71     2.4   852.1    0.00 
  55   20:50   0.00   21.9    80    2.6   118     4.2   852.1    0.00 
  55   21:00   0.00   21.1    78    1.1   162     2.3   852.2    0.00 
  55   21:10   0.00   20.9    81    0.1   293     1.4   852.3    0.00 
  55   21:20   0.00   21.4    84    0.8    18     2.0   852.4    0.00 
  55   21:30   0.00   21.3    86    0.0     0     0.0   852.4    0.00 
  55   21:40   0.00   21.8    85    0.9   191     2.8   852.4    0.00 
  55   21:50   0.00   21.7    84    1.8   194     2.3   852.4    0.00 
  55   22:00   0.00   21.7    83    1.6   210     2.3   852.4    0.00 
  55   22:10   0.00   21.6    84    2.3   268     3.2   852.3    0.00 
  55   22:20   0.00   21.3    85    1.5   145     2.7   852.4    0.00 
  55   22:30   0.00   21.2    85    1.2   137     1.8   852.3    0.00 
  55   22:40   0.00   21.5    83    1.4   147     2.3   852.2    0.00 
  55   22:50   0.00   21.7    83    0.6   134     2.3   852.2    0.00 
  55   23:00   0.00   21.6    84    1.0   211     2.0   852.3    0.00 
  55   23:10   0.00   22.1    84    1.2   194     2.2   852.3    0.00 
  55   23:20   0.00   22.8    83    0.6   206     1.9   852.1    0.00 
  55   23:30   0.00   23.3    82    0.0   205     0.5   852.1    0.00 
  55   23:40   0.00   23.6    81    1.4    82     2.4   852.0    0.00 
  55   23:50   0.00   23.5    81    2.6    88     3.2   852.0    0.00 
  56    0:00   0.00   23.5    80    1.1    98     3.0   852.0    0.00 
  56    0:10   0.00   23.5    80    0.0     0     0.0   852.0    0.00 
  56    0:20   0.00   23.4    81    0.0     0     0.0   851.8    0.00 
  56    0:30   0.00   23.6    82    1.1   322     2.2   851.8    0.00 
  56    0:40   0.00   23.8    83    1.2   231     2.9   851.9    0.00 
  56    0:50   0.00   23.7    84    2.0   202     2.8   851.8    0.00 
  56    1:00   0.00   23.8    83    1.4   204     1.9   851.8    0.00 
  56    1:10   0.00   23.8    83    1.1   216     1.5   851.8    0.00 
  56    1:20   0.00   23.9    84    1.8   209     2.6   851.8    0.00 
  56    1:30   0.00   24.0    84    0.0   209     0.7   851.8    0.00 
  56    1:40   0.00   24.1    84    1.1   103     2.3   851.7    0.00 
  56    1:50   0.00   24.2    84    1.7   113     2.6   851.6    0.00 
  56    2:00   0.00   24.1    83    1.9   126     2.5   851.6    0.00 
  56    2:10   0.00   24.2    82    2.2   103     2.9   851.4    0.00 
  56    2:20   0.00   24.3    79    1.5    91     2.5   851.4    0.00 
  56    2:30   0.00   24.6    78    1.8    66     2.9   851.3    0.00 
  56    2:40   0.00   24.5    79    1.5    44     3.4   851.3    0.00 
  56    2:50   0.00   24.5    81    2.3   304     4.1   851.2    0.00 
  56    3:00   0.00   24.4    84    1.5   357     3.0   851.1    0.00 
  56    3:10   0.00   24.5    83    1.9   333     2.8   851.2    0.00 
  56    3:20   0.00   24.3    82    1.7   267     2.7   851.2    0.00 
  56    3:30   0.00   24.5    76    0.7    45     2.8   851.2    0.00 
  56    3:40   0.00   24.9    74    2.6    57     3.5   851.2    0.00 
  56    3:50   0.00   24.9    78    3.6    66     4.9   851.3    0.00 
  56    4:00   0.00   25.0    80    4.6    59     6.4   851.3    0.00 
  56    4:10   0.00   25.2    78    5.8    66     8.1   851.2    0.00 
  56    4:20   0.00   25.2    82    5.8    79     7.7   851.2    0.00 
  56    4:30   0.00   24.9    79    6.4    94     8.7   851.1    0.00 
  56    4:40   0.00   25.0    76    5.4    98     8.0   851.1    0.00 
  56    4:50   0.00   24.8    75    5.4   102     7.2   851.0    0.00 
  56    5:00   0.00   24.8    76    4.4    93     5.7   851.0    0.00 
  56    5:10   0.00   25.0    77    3.7   101     6.0   851.0    0.00 
  56    5:20   0.00   25.0    77    2.3    99     3.1   851.0    0.00 
  56    5:30   0.00   25.0    77    1.2    97     2.2   851.0    0.00 
  56    5:40   0.00   25.2    77    0.5     3     3.2   851.1    0.00 
  56    5:50   0.00   25.1    82    2.5   311     3.6   851.1    0.00 
  56    6:00   0.00   25.0    83    2.2   299     3.4   851.2    0.00 
  56    6:10   0.00   25.0    83    1.9   267     2.7   851.3    0.00 
  56    6:20   0.00   25.0    82    1.8   270     2.4   851.3    0.00 
  56    6:30   0.00   25.1    83    2.1   254     3.3   851.4    0.00 
  56    6:40   0.00   24.9    84    3.3   242     4.5   851.4    0.00 
  56    6:50   0.01   24.8    82    4.2   235     5.9   851.5    0.00 
  56    7:00   0.02   25.0    77    5.2   232     7.5   851.6    0.00 
  56    7:10   0.03   25.2    76    5.5   242     7.5   851.7    0.00 
  56    7:20   0.04   25.4    77    5.5   217     7.5   851.8    0.00 
  56    7:30   0.06   25.8    75    5.7   198     8.3   851.9    0.00 
  56    7:40   0.08   26.1    74    5.8   196     7.7   852.0    0.00 
  56    7:50   0.10   26.2    73    5.9   196     7.8   852.0    0.00 
  56    8:00   0.11   26.3    73    5.9   203     8.0   852.0    0.00 
  56    8:10   0.11   26.4    73    6.3   202     8.6   852.0    0.00 
  56    8:20   0.15   26.5    73    6.0   190     8.4   852.0    0.00 
  56    8:30   0.17   26.9    72    6.3   192     8.4   852.0    0.00 
  56    8:40   0.18   27.0    72    5.8   200     8.0   852.0    0.00 
  56    8:50   0.23   27.3    70    6.2   205     8.8   852.0    0.00 
  56    9:00   0.24   27.6    69    6.1   199     9.2   852.1    0.00 
  56    9:10   0.25   28.0    67    5.9   194     9.4   852.0    0.00 
  56    9:20   0.26   28.2    68    6.6   208     9.1   852.0    0.00 
  56    9:30   0.25   28.4    66    6.2   203     9.9   852.1    0.00 
  56    9:40   0.23   28.3    66    6.1   213    10.1   852.1    0.00 
  56    9:50   0.26   28.0    66    5.5   223     9.4   852.1    0.00 
  56   10:00   0.29   28.6    66    4.4   198     7.5   852.1    0.00 
  56   10:10   0.29   28.9    64    3.7   208     7.3   852.1    0.00 
  56   10:20   0.33   28.8    64    5.0   222     8.4   852.1    0.00 

Return to Antelope Valley graphs page.


Western Regional Climate Center,wrcc@dri.edu